createdAt,value
2023-04-20T00:01:16.349Z,100.00
2023-04-20T00:06:22.638Z,100.00
2023-04-20T00:11:26.662Z,100.00
2023-04-20T00:16:30.771Z,100.00
2023-04-20T00:21:36.718Z,100.00
2023-04-20T00:26:40.621Z,100.00
2023-04-20T00:31:44.970Z,100.00
2023-04-20T00:36:52.815Z,100.00
2023-04-20T00:42:04.295Z,100.00
2023-04-20T00:47:08.561Z,100.00
2023-04-20T00:52:14.248Z,100.00
2023-04-20T00:57:20.047Z,100.00
2023-04-20T01:02:24.172Z,100.00
2023-04-20T01:07:30.265Z,100.00
2023-04-20T01:12:34.488Z,100.00
2023-04-20T01:17:40.090Z,100.00
2023-04-20T01:22:48.814Z,100.00
2023-04-20T01:27:53.022Z,100.00
2023-04-20T01:32:57.247Z,100.00
2023-04-20T01:38:03.232Z,100.00
2023-04-20T01:43:08.264Z,100.00
2023-04-20T01:48:12.541Z,100.00
2023-04-20T01:53:18.173Z,100.00
2023-04-20T01:58:23.927Z,100.00
2023-04-20T02:03:28.166Z,100.00
2023-04-20T02:08:34.559Z,100.00
2023-04-20T02:13:38.952Z,100.00
2023-04-20T02:18:42.968Z,100.00
2023-04-20T02:23:48.814Z,100.00
2023-04-20T02:28:52.979Z,100.00
2023-04-20T02:33:56.778Z,100.00
2023-04-20T02:39:05.998Z,100.00
2023-04-20T02:44:11.313Z,100.00
2023-04-20T02:49:16.335Z,100.00
2023-04-20T02:54:23.239Z,100.00
2023-04-20T02:59:28.154Z,100.00
2023-04-20T03:04:40.371Z,100.00
2023-04-20T03:09:56.180Z,100.00
2023-04-20T03:15:13.981Z,100.00
2023-04-20T03:20:30.982Z,100.00
2023-04-20T03:25:37.255Z,100.00
2023-04-20T03:30:46.258Z,100.00
2023-04-20T03:35:53.280Z,100.00
2023-04-20T03:40:59.646Z,100.00
2023-04-20T03:46:04.866Z,100.00
2023-04-20T03:51:08.733Z,100.00
2023-04-20T03:56:16.420Z,100.00
2023-04-20T04:01:20.951Z,100.00
2023-04-20T04:06:27.581Z,100.00
2023-04-20T04:11:33.443Z,100.00
2023-04-20T04:16:38.251Z,100.00
2023-04-20T04:21:42.608Z,100.00
2023-04-20T04:26:49.814Z,100.00
2023-04-20T04:31:55.021Z,100.00
2023-04-20T04:36:59.212Z,100.00
2023-04-20T04:42:17.503Z,100.00
2023-04-20T04:47:23.043Z,100.00
2023-04-20T04:52:28.903Z,100.00
2023-04-20T04:57:35.223Z,100.00
2023-04-20T05:02:39.961Z,100.00
2023-04-20T05:07:44.372Z,100.00
2023-04-20T05:12:50.076Z,100.00
2023-04-20T05:17:54.771Z,100.00
2023-04-20T05:22:58.792Z,100.00
2023-04-20T05:28:04.048Z,100.00
2023-04-20T05:33:07.951Z,100.00
2023-04-20T05:38:11.812Z,100.00
2023-04-20T05:43:17.795Z,100.00
2023-04-20T05:48:22.109Z,100.00
2023-04-20T05:53:26.943Z,100.00
2023-04-20T05:58:33.452Z,100.00
2023-04-20T06:03:38.080Z,100.00
2023-04-20T06:08:42.840Z,100.00
2023-04-20T06:13:48.251Z,100.00
2023-04-20T06:18:52.633Z,100.00
2023-04-20T06:23:56.464Z,100.00
2023-04-20T06:29:02.064Z,100.00
2023-04-20T06:34:06.405Z,100.00
2023-04-20T06:39:11.377Z,100.00
2023-04-20T06:44:16.758Z,100.00
2023-04-20T06:49:20.598Z,100.00
2023-04-20T06:54:24.497Z,100.00
2023-04-20T06:59:30.002Z,100.00
2023-04-20T07:04:34.108Z,100.00
2023-04-20T07:09:38.238Z,100.00
2023-04-20T07:14:43.387Z,100.00
2023-04-20T07:19:47.574Z,100.00
2023-04-20T07:24:51.685Z,100.00
2023-04-20T07:29:57.598Z,100.00
2023-04-20T07:35:01.880Z,100.00
2023-04-20T07:40:07.126Z,100.00
2023-04-20T07:45:14.595Z,100.00
2023-04-20T07:50:18.685Z,100.00
2023-04-20T07:55:22.953Z,100.00
2023-04-20T08:00:28.882Z,100.00
2023-04-20T08:05:33.713Z,100.00
2023-04-20T08:10:38.008Z,100.00
2023-04-20T08:15:43.480Z,100.00
2023-04-20T08:20:47.324Z,100.00
2023-04-20T08:25:51.128Z,100.00
2023-04-20T08:30:57.423Z,100.00
2023-04-20T08:36:01.319Z,100.00
2023-04-20T08:41:05.383Z,100.00
2023-04-20T08:46:10.887Z,100.00
2023-04-20T08:51:16.778Z,100.00
2023-04-20T08:56:21.033Z,100.00
2023-04-20T09:01:35.592Z,100.00
2023-04-20T09:06:44.312Z,100.00
2023-04-20T09:11:48.762Z,100.00
2023-04-20T09:16:57.236Z,100.00
2023-04-20T09:22:03.997Z,100.00
2023-04-20T09:27:16.358Z,100.00
2023-04-20T09:32:25.772Z,100.00
2023-04-20T09:37:29.780Z,100.00
2023-04-20T09:42:33.857Z,100.00
2023-04-20T09:47:41.900Z,100.00
2023-04-20T09:52:49.178Z,100.00
2023-04-20T09:57:53.513Z,100.00
2023-04-20T10:02:59.261Z,100.00
2023-04-20T10:08:04.001Z,100.00
2023-04-20T10:13:08.239Z,100.00
2023-04-20T10:18:25.074Z,100.00
2023-04-20T10:23:29.575Z,100.00
2023-04-20T10:28:40.926Z,100.00
2023-04-20T10:33:53.947Z,100.00
2023-04-20T10:38:58.862Z,100.00
2023-04-20T10:44:09.730Z,100.00
2023-04-20T10:49:15.446Z,100.00
2023-04-20T10:54:20.075Z,100.00
2023-04-20T10:59:25.632Z,94.81
2023-04-20T11:04:34.418Z,88.47
2023-04-20T11:09:38.712Z,90.91
2023-04-20T11:14:52.955Z,94.12
2023-04-20T11:20:05.851Z,89.76
2023-04-20T11:25:11.446Z,93.03
2023-04-20T11:30:15.835Z,88.85
2023-04-20T11:35:21.849Z,86.69
2023-04-20T11:40:28.087Z,87.36
2023-04-20T11:45:36.307Z,82.63
2023-04-20T11:50:42.676Z,85.32
2023-04-20T11:55:46.825Z,85.45
2023-04-20T12:00:51.110Z,76.31
2023-04-20T12:05:56.598Z,76.85
2023-04-20T12:11:00.687Z,73.81
2023-04-20T12:16:04.731Z,69.06
2023-04-20T12:21:10.183Z,71.00
2023-04-20T12:26:14.333Z,69.13
2023-04-20T12:31:18.429Z,70.77
2023-04-20T12:36:23.949Z,70.21
2023-04-20T12:41:28.397Z,66.71
2023-04-20T12:46:32.523Z,60.78
2023-04-20T12:51:38.148Z,62.00
2023-04-20T12:56:42.511Z,63.48
2023-04-20T13:01:48.147Z,64.78
2023-04-20T13:06:53.716Z,67.89
2023-04-20T13:11:57.899Z,74.27
2023-04-20T13:17:02.720Z,80.19
2023-04-20T13:22:08.198Z,73.13
2023-04-20T13:27:12.312Z,63.65
2023-04-20T13:32:16.141Z,60.72
2023-04-20T13:37:21.900Z,60.18
2023-04-20T13:42:25.801Z,58.89
2023-04-20T13:47:30.524Z,60.91
2023-04-20T13:52:35.927Z,65.61
2023-04-20T13:57:39.772Z,74.93
2023-04-20T14:02:43.956Z,80.23
2023-04-20T14:07:49.234Z,82.52
2023-04-20T14:12:53.294Z,83.71
2023-04-20T14:17:57.182Z,86.08
2023-04-20T14:23:02.995Z,77.72
2023-04-20T14:28:07.115Z,77.17
2023-04-20T14:33:11.502Z,71.67
2023-04-20T14:38:17.081Z,72.80
2023-04-20T14:43:20.938Z,67.44
2023-04-20T14:48:26.673Z,62.17
2023-04-20T14:53:33.122Z,67.89
2023-04-20T14:58:37.471Z,68.32
2023-04-20T15:03:41.978Z,69.49
2023-04-20T15:08:47.738Z,67.95
2023-04-20T15:13:52.630Z,67.48
2023-04-20T15:18:56.782Z,67.26
2023-04-20T15:24:02.118Z,74.13
2023-04-20T15:29:06.620Z,74.81
2023-04-20T15:34:11.461Z,74.16
2023-04-20T15:39:17.241Z,75.67
2023-04-20T15:44:21.090Z,77.92
2023-04-20T15:49:25.363Z,82.80
2023-04-20T15:54:31.023Z,80.46
2023-04-20T15:59:34.833Z,81.13
2023-04-20T16:04:42.583Z,78.33
2023-04-20T16:09:48.135Z,80.52
2023-04-20T16:14:53.846Z,83.11
2023-04-20T16:19:57.934Z,88.18
2023-04-20T16:25:03.372Z,86.81
2023-04-20T16:30:09.161Z,90.50
2023-04-20T16:35:13.273Z,93.08
2023-04-20T16:40:20.882Z,96.37
2023-04-20T16:45:24.884Z,99.36
2023-04-20T16:50:29.608Z,97.13
2023-04-20T16:55:35.437Z,95.79
2023-04-20T17:00:39.677Z,100.00
2023-04-20T17:05:43.611Z,100.00
2023-04-20T17:10:49.065Z,100.00
2023-04-20T17:15:52.992Z,100.00
2023-04-20T17:20:57.695Z,100.00
2023-04-20T17:26:03.839Z,100.00
2023-04-20T17:31:07.696Z,100.00
2023-04-20T17:36:12.039Z,100.00
2023-04-20T17:41:18.060Z,100.00
2023-04-20T17:46:22.332Z,100.00
2023-04-20T17:51:27.101Z,100.00
2023-04-20T17:56:32.565Z,100.00
2023-04-20T18:01:36.851Z,100.00
2023-04-20T18:06:41.275Z,100.00
2023-04-20T18:11:46.698Z,100.00
2023-04-20T18:16:52.077Z,100.00
2023-04-20T18:21:56.384Z,100.00
2023-04-20T18:27:02.220Z,100.00
2023-04-20T18:32:06.237Z,100.00
2023-04-20T18:37:12.390Z,100.00
2023-04-20T18:42:18.116Z,100.00
2023-04-20T18:47:22.312Z,100.00
2023-04-20T18:52:26.597Z,100.00
2023-04-20T18:57:32.618Z,100.00
2023-04-20T19:02:36.952Z,100.00
2023-04-20T19:07:41.150Z,100.00
2023-04-20T19:12:46.836Z,100.00
2023-04-20T19:17:51.212Z,100.00
2023-04-20T19:22:55.248Z,100.00
2023-04-20T19:28:00.823Z,100.00
2023-04-20T19:33:05.885Z,100.00
2023-04-20T19:38:10.053Z,100.00
2023-04-20T19:43:16.975Z,100.00
2023-04-20T19:48:21.110Z,100.00
2023-04-20T19:53:25.243Z,100.00
2023-04-20T19:58:30.935Z,100.00
2023-04-20T20:03:35.394Z,100.00
2023-04-20T20:08:39.683Z,100.00
2023-04-20T20:13:44.928Z,100.00
2023-04-20T20:18:50.647Z,100.00
2023-04-20T20:23:54.700Z,100.00
2023-04-20T20:29:00.090Z,100.00
2023-04-20T20:34:04.012Z,100.00
2023-04-20T20:39:08.115Z,100.00
2023-04-20T20:44:14.598Z,100.00
2023-04-20T20:49:18.897Z,100.00
2023-04-20T20:54:22.940Z,100.00
2023-04-20T20:59:28.116Z,100.00
2023-04-20T21:04:32.537Z,100.00
2023-04-20T21:09:36.371Z,100.00
2023-04-20T21:14:41.723Z,100.00
2023-04-20T21:19:46.000Z,100.00
2023-04-20T21:24:49.842Z,100.00
2023-04-20T21:29:55.386Z,100.00
2023-04-20T21:34:59.790Z,100.00
2023-04-20T21:40:03.784Z,100.00
2023-04-20T21:45:10.923Z,100.00
2023-04-20T21:50:15.193Z,100.00
2023-04-20T21:55:19.005Z,100.00
2023-04-20T22:00:25.068Z,100.00
2023-04-20T22:05:29.404Z,100.00
2023-04-20T22:10:33.778Z,100.00
2023-04-20T22:15:39.062Z,100.00
2023-04-20T22:20:43.184Z,100.00
2023-04-20T22:25:47.985Z,100.00
2023-04-20T22:30:53.452Z,100.00
2023-04-20T22:35:58.007Z,100.00
2023-04-20T22:41:01.816Z,100.00
2023-04-20T22:46:07.104Z,100.00
2023-04-20T22:51:11.053Z,100.00
2023-04-20T22:56:14.980Z,100.00
2023-04-20T23:01:20.470Z,100.00
2023-04-20T23:06:24.666Z,100.00
2023-04-20T23:11:29.491Z,100.00
2023-04-20T23:16:35.144Z,100.00
2023-04-20T23:21:39.969Z,100.00
2023-04-20T23:26:47.129Z,100.00
2023-04-20T23:31:52.448Z,100.00
2023-04-20T23:36:56.786Z,100.00
2023-04-20T23:42:01.345Z,100.00
2023-04-20T23:47:07.247Z,100.00
2023-04-20T23:52:11.313Z,100.00
2023-04-20T23:57:15.109Z,100.00
